createdAt,value
2018-07-07T00:00:45.460Z,71.12
2018-07-07T00:03:13.079Z,71.25
2018-07-07T00:05:40.694Z,71.27
2018-07-07T00:08:08.299Z,71.22
2018-07-07T00:10:35.927Z,71.26
2018-07-07T00:13:03.553Z,71.44
2018-07-07T00:15:31.192Z,71.52
2018-07-07T00:17:58.784Z,71.47
2018-07-07T00:20:26.386Z,71.84
2018-07-07T00:22:53.977Z,71.37
2018-07-07T00:25:21.949Z,71.50
2018-07-07T00:27:50.204Z,71.87
2018-07-07T00:30:18.390Z,72.13
2018-07-07T00:32:46.050Z,71.91
2018-07-07T00:35:13.713Z,71.73
2018-07-07T00:37:41.364Z,71.63
2018-07-07T00:40:10.019Z,71.74
2018-07-07T00:42:38.130Z,71.57
2018-07-07T00:45:05.763Z,71.98
2018-07-07T00:47:33.365Z,71.82
2018-07-07T00:50:01.152Z,72.30
2018-07-07T00:52:28.840Z,72.00
2018-07-07T00:54:56.556Z,72.20
2018-07-07T00:57:24.475Z,72.11
2018-07-07T00:59:52.354Z,72.22
2018-07-07T01:02:21.425Z,72.13
2018-07-07T01:04:50.749Z,71.96
2018-07-07T01:07:18.469Z,72.51
2018-07-07T01:09:46.159Z,71.91
2018-07-07T01:12:13.782Z,72.49
2018-07-07T01:14:41.451Z,71.96
2018-07-07T01:17:09.059Z,72.13
2018-07-07T01:19:36.655Z,71.94
2018-07-07T01:22:06.226Z,72.40
2018-07-07T01:24:33.800Z,73.14
2018-07-07T01:27:01.468Z,72.65
2018-07-07T01:29:29.052Z,73.56
2018-07-07T01:31:56.680Z,73.66
2018-07-07T01:34:24.314Z,73.24
2018-07-07T01:36:51.905Z,73.40
2018-07-07T01:39:19.482Z,73.02
2018-07-07T01:41:47.094Z,73.36
2018-07-07T01:44:14.670Z,73.54
2018-07-07T01:46:42.333Z,73.14
2018-07-07T01:49:09.926Z,73.25
2018-07-07T01:51:37.512Z,73.13
2018-07-07T01:54:05.166Z,72.61
2018-07-07T01:56:32.779Z,72.97
2018-07-07T01:59:00.448Z,71.81
2018-07-07T02:01:28.035Z,71.97
2018-07-07T02:03:55.693Z,71.96
2018-07-07T02:06:23.263Z,71.67
2018-07-07T02:08:50.845Z,71.14
2018-07-07T02:11:18.497Z,71.12
2018-07-07T02:13:46.092Z,70.98
2018-07-07T02:16:13.700Z,70.64
2018-07-07T02:18:41.314Z,70.40
2018-07-07T02:21:08.891Z,71.04
2018-07-07T02:23:36.478Z,70.22
2018-07-07T02:26:04.249Z,70.12
2018-07-07T02:28:31.907Z,69.44
2018-07-07T02:30:59.514Z,69.63
2018-07-07T02:33:27.126Z,70.44
2018-07-07T02:35:54.728Z,68.81
2018-07-07T02:38:22.310Z,69.65
2018-07-07T02:40:49.887Z,69.28
2018-07-07T02:43:17.996Z,69.76
2018-07-07T02:45:45.629Z,68.89
2018-07-07T02:48:13.253Z,68.23
2018-07-07T02:50:40.823Z,67.88
2018-07-07T02:53:08.473Z,66.27
2018-07-07T02:55:36.064Z,66.62
2018-07-07T02:58:03.735Z,65.84
2018-07-07T03:00:31.382Z,64.77
2018-07-07T03:02:58.957Z,65.69
2018-07-07T03:05:26.528Z,65.42
2018-07-07T03:07:54.167Z,64.76
2018-07-07T03:10:21.732Z,65.09
2018-07-07T03:12:49.286Z,63.33
2018-07-07T03:15:21.356Z,64.21
2018-07-07T03:17:49.099Z,63.73
2018-07-07T03:20:16.715Z,63.61
2018-07-07T03:22:44.315Z,63.57
2018-07-07T03:25:12.142Z,62.67
2018-07-07T03:27:39.967Z,60.81
2018-07-07T03:30:08.049Z,62.08
2018-07-07T03:32:35.849Z,60.15
2018-07-07T03:35:03.565Z,60.81
2018-07-07T03:37:31.184Z,60.76
2018-07-07T03:39:58.771Z,60.55
2018-07-07T03:42:26.345Z,60.40
2018-07-07T03:44:54.175Z,58.32
2018-07-07T03:47:21.781Z,57.92
2018-07-07T03:49:49.357Z,56.08
2018-07-07T03:52:16.966Z,57.31
2018-07-07T03:54:44.603Z,54.62
2018-07-07T03:57:12.192Z,56.10
2018-07-07T03:59:39.788Z,56.08
2018-07-07T04:02:08.249Z,53.80
2018-07-07T04:04:37.023Z,54.06
2018-07-07T04:07:05.015Z,53.96
2018-07-07T04:09:32.635Z,52.08
2018-07-07T04:12:00.223Z,53.27
2018-07-07T04:14:27.815Z,54.43
2018-07-07T04:16:55.462Z,52.73
2018-07-07T04:19:23.072Z,51.96
2018-07-07T04:21:50.660Z,51.83
2018-07-07T04:24:18.299Z,50.70
2018-07-07T04:26:45.872Z,51.75
2018-07-07T04:29:13.452Z,48.18
2018-07-07T04:31:41.048Z,49.20
2018-07-07T04:34:08.631Z,49.60
2018-07-07T04:36:36.215Z,47.14
2018-07-07T04:39:04.363Z,48.74
2018-07-07T04:41:31.938Z,46.59
2018-07-07T04:43:59.540Z,47.17
2018-07-07T04:46:27.188Z,47.29
2018-07-07T04:48:54.744Z,46.26
2018-07-07T04:51:22.327Z,46.66
2018-07-07T04:53:49.954Z,46.42
2018-07-07T04:56:17.570Z,45.91
2018-07-07T04:58:45.173Z,46.18
2018-07-07T05:01:12.811Z,46.58
2018-07-07T05:03:40.390Z,45.23
2018-07-07T05:06:08.051Z,43.79
2018-07-07T05:08:35.651Z,41.95
2018-07-07T05:11:03.292Z,43.76
2018-07-07T05:13:30.852Z,44.81
2018-07-07T05:15:58.498Z,45.13
2018-07-07T05:18:26.101Z,46.21
2018-07-07T05:20:53.689Z,46.88
2018-07-07T05:23:21.315Z,45.69
2018-07-07T05:25:48.867Z,45.65
2018-07-07T05:28:16.507Z,46.50
2018-07-07T05:30:44.127Z,45.32
2018-07-07T05:33:11.724Z,44.84
2018-07-07T05:35:39.383Z,44.46
2018-07-07T05:38:06.995Z,40.23
2018-07-07T05:40:34.585Z,42.16
2018-07-07T05:43:02.259Z,41.66
2018-07-07T05:45:29.844Z,42.25
2018-07-07T05:47:57.411Z,42.10
2018-07-07T05:50:25.052Z,41.07
2018-07-07T05:52:52.665Z,39.71
2018-07-07T05:55:20.255Z,40.39
2018-07-07T05:57:47.909Z,42.06
2018-07-07T06:00:16.007Z,40.99
2018-07-07T06:02:43.679Z,39.65
2018-07-07T06:05:11.297Z,39.01
2018-07-07T06:07:39.119Z,38.70
2018-07-07T06:10:06.931Z,38.89
2018-07-07T06:12:34.555Z,40.55
2018-07-07T06:15:02.180Z,39.42
2018-07-07T06:17:29.852Z,40.21
2018-07-07T06:19:57.403Z,36.39
2018-07-07T06:22:25.032Z,37.16
2018-07-07T06:24:52.616Z,35.75
2018-07-07T06:27:20.216Z,37.12
2018-07-07T06:29:47.837Z,35.63
2018-07-07T06:32:15.439Z,37.59
2018-07-07T06:34:43.077Z,38.89
2018-07-07T06:37:10.762Z,38.37
2018-07-07T06:39:38.284Z,37.38
2018-07-07T06:42:05.928Z,36.82
2018-07-07T06:44:33.483Z,34.10
2018-07-07T06:47:01.071Z,34.32
2018-07-07T06:49:28.704Z,35.09
2018-07-07T06:51:56.274Z,34.86
2018-07-07T06:54:23.900Z,35.16
2018-07-07T06:56:51.560Z,34.42
2018-07-07T06:59:19.171Z,33.11
2018-07-07T07:01:46.826Z,34.72
2018-07-07T07:04:14.427Z,33.05
2018-07-07T07:06:42.053Z,36.21
2018-07-07T07:09:10.377Z,35.51
2018-07-07T07:11:38.124Z,35.32
2018-07-07T07:14:05.938Z,33.49
2018-07-07T07:16:33.524Z,33.49
2018-07-07T07:19:01.119Z,35.05
2018-07-07T07:21:28.791Z,34.67
2018-07-07T07:24:03.180Z,32.76
2018-07-07T07:26:30.765Z,33.97
2018-07-07T07:28:58.403Z,33.94
2018-07-07T07:31:26.404Z,33.37
2018-07-07T07:33:54.015Z,31.15
2018-07-07T07:36:33.431Z,34.13
2018-07-07T07:39:00.983Z,34.27
2018-07-07T07:41:28.623Z,32.51
2018-07-07T07:43:56.526Z,33.79
2018-07-07T07:46:24.131Z,34.54
2018-07-07T07:48:51.724Z,31.84
2018-07-07T07:51:19.386Z,33.25
2018-07-07T07:53:47.015Z,33.89
2018-07-07T07:56:14.612Z,33.16
2018-07-07T07:58:42.296Z,34.97
2018-07-07T08:01:09.881Z,35.00
2018-07-07T08:03:37.443Z,34.93
2018-07-07T08:06:05.084Z,31.67
2018-07-07T08:08:32.681Z,31.74
2018-07-07T08:11:00.262Z,30.81
2018-07-07T08:13:27.841Z,32.50
2018-07-07T08:15:55.365Z,31.61
2018-07-07T08:18:22.988Z,30.64
2018-07-07T08:20:50.508Z,31.23
2018-07-07T08:23:18.061Z,33.38
2018-07-07T08:25:45.639Z,32.06
2018-07-07T08:28:13.177Z,32.82
2018-07-07T08:30:40.818Z,31.06
2018-07-07T08:33:08.466Z,29.71
2018-07-07T08:35:36.019Z,31.08
2018-07-07T08:38:03.598Z,32.16
2018-07-07T08:40:31.147Z,32.15
2018-07-07T08:42:58.906Z,32.51
2018-07-07T08:45:26.472Z,30.35
2018-07-07T08:47:54.047Z,31.17
2018-07-07T08:50:21.700Z,30.24
2018-07-07T08:52:49.248Z,29.62
2018-07-07T08:55:16.819Z,30.88
2018-07-07T08:57:44.390Z,31.02
2018-07-07T09:00:16.184Z,31.61
2018-07-07T09:02:43.775Z,30.46
2018-07-07T09:05:11.399Z,28.41
2018-07-07T09:07:38.956Z,30.54
2018-07-07T09:10:06.564Z,31.14
2018-07-07T09:12:34.117Z,30.31
2018-07-07T09:15:01.715Z,29.54
2018-07-07T09:17:29.302Z,31.73
2018-07-07T09:19:56.880Z,31.27
2018-07-07T09:22:24.496Z,31.86
2018-07-07T09:24:52.051Z,30.89
2018-07-07T09:27:19.639Z,31.41
2018-07-07T09:29:47.196Z,31.45
2018-07-07T09:32:14.779Z,29.69
2018-07-07T09:34:42.366Z,28.75
2018-07-07T09:37:10.016Z,29.53
2018-07-07T09:39:37.580Z,28.91
2018-07-07T09:42:05.267Z,29.85
2018-07-07T09:44:32.868Z,32.32
2018-07-07T09:47:00.407Z,30.69
2018-07-07T09:49:27.945Z,28.79
2018-07-07T09:51:55.553Z,29.68
2018-07-07T09:54:23.084Z,29.41
2018-07-07T09:56:50.863Z,29.45
2018-07-07T09:59:18.377Z,27.87
2018-07-07T10:01:45.953Z,28.29
2018-07-07T10:04:13.566Z,28.84
2018-07-07T10:06:41.155Z,31.17
2018-07-07T10:09:08.696Z,29.51
2018-07-07T10:11:36.270Z,31.01
2018-07-07T10:14:03.893Z,29.10
2018-07-07T10:16:31.457Z,31.22
2018-07-07T10:18:59.065Z,33.01
2018-07-07T10:21:26.600Z,31.37
2018-07-07T10:23:54.145Z,32.58
2018-07-07T10:26:21.708Z,29.96
2018-07-07T10:28:49.215Z,31.45
2018-07-07T10:31:16.830Z,28.69
2018-07-07T10:33:44.434Z,28.46
2018-07-07T10:36:11.981Z,28.96
2018-07-07T10:38:39.543Z,30.48
2018-07-07T10:41:07.216Z,30.50
2018-07-07T10:43:34.827Z,28.60
2018-07-07T10:46:02.508Z,29.24
2018-07-07T10:48:30.122Z,28.75
2018-07-07T10:50:57.784Z,28.07
2018-07-07T10:53:25.410Z,29.78
2018-07-07T10:55:53.037Z,28.42
2018-07-07T10:58:20.717Z,27.81
2018-07-07T11:00:48.368Z,26.55
2018-07-07T11:03:15.994Z,26.93
2018-07-07T11:05:43.632Z,28.07
2018-07-07T11:08:11.208Z,30.09
2018-07-07T11:10:38.912Z,31.32
2018-07-07T11:13:06.505Z,32.62
2018-07-07T11:15:34.140Z,32.50
2018-07-07T11:18:01.823Z,33.57
2018-07-07T11:20:29.519Z,34.35
2018-07-07T11:22:57.127Z,35.45
2018-07-07T11:25:24.798Z,33.85
2018-07-07T11:27:52.380Z,34.45
2018-07-07T11:30:20.026Z,36.46
2018-07-07T11:32:47.694Z,37.20
2018-07-07T11:35:15.277Z,37.25
2018-07-07T11:37:43.058Z,36.92
2018-07-07T11:40:10.758Z,37.18
2018-07-07T11:42:38.380Z,36.53
2018-07-07T11:45:05.987Z,37.16
2018-07-07T11:47:33.735Z,39.06
2018-07-07T11:50:01.473Z,39.47
2018-07-07T11:52:29.080Z,38.53
2018-07-07T11:54:56.724Z,39.27
2018-07-07T11:57:24.383Z,39.32
2018-07-07T11:59:52.007Z,37.18
2018-07-07T12:02:19.628Z,38.79
2018-07-07T12:04:47.303Z,38.85
2018-07-07T12:07:14.952Z,38.76
2018-07-07T12:09:42.567Z,37.73
2018-07-07T12:12:10.189Z,38.49
2018-07-07T12:14:37.828Z,38.00
2018-07-07T12:17:05.590Z,39.68
2018-07-07T12:19:33.203Z,39.95
2018-07-07T12:22:00.852Z,38.30
2018-07-07T12:24:28.648Z,35.77
2018-07-07T12:26:56.263Z,38.44
2018-07-07T12:29:23.935Z,36.48
2018-07-07T12:31:51.584Z,36.42
2018-07-07T12:34:19.186Z,36.54
2018-07-07T12:36:46.896Z,37.00
2018-07-07T12:39:14.443Z,38.85
2018-07-07T12:41:54.131Z,37.86
2018-07-07T12:44:21.744Z,38.25
2018-07-07T12:46:49.556Z,38.55
2018-07-07T12:49:17.238Z,37.29
2018-07-07T12:51:45.185Z,37.99
2018-07-07T12:54:12.826Z,36.79
2018-07-07T12:56:40.423Z,37.22
2018-07-07T12:59:08.058Z,39.52
2018-07-07T13:01:35.666Z,37.38
2018-07-07T13:04:03.306Z,37.56
2018-07-07T13:06:30.923Z,36.29
2018-07-07T13:08:58.593Z,37.18
2018-07-07T13:11:26.216Z,35.97
2018-07-07T13:13:53.940Z,36.34
2018-07-07T13:16:21.584Z,37.22
2018-07-07T13:18:49.311Z,37.69
2018-07-07T13:21:16.965Z,38.49
2018-07-07T13:23:44.648Z,37.01
2018-07-07T13:26:12.347Z,37.19
2018-07-07T13:28:39.985Z,37.36
2018-07-07T13:31:07.647Z,37.44
2018-07-07T13:33:35.294Z,38.01
2018-07-07T13:36:02.986Z,39.66
2018-07-07T13:38:35.100Z,39.82
2018-07-07T13:41:03.198Z,38.42
2018-07-07T13:43:30.812Z,39.74
2018-07-07T13:45:58.427Z,39.94
2018-07-07T13:48:26.083Z,39.03
2018-07-07T13:50:53.700Z,40.90
2018-07-07T13:53:21.363Z,39.46
2018-07-07T13:55:49.020Z,40.44
2018-07-07T13:58:16.683Z,39.97
2018-07-07T14:00:44.303Z,39.26
2018-07-07T14:03:11.970Z,38.40
2018-07-07T14:05:39.584Z,38.95
2018-07-07T14:08:07.195Z,38.26
2018-07-07T14:10:34.855Z,38.47
2018-07-07T14:13:02.445Z,38.57
2018-07-07T14:15:30.049Z,39.37
2018-07-07T14:17:57.688Z,41.05
2018-07-07T14:20:25.931Z,39.24
2018-07-07T14:22:53.506Z,39.68
2018-07-07T14:25:21.143Z,40.20
2018-07-07T14:27:48.757Z,40.50
2018-07-07T14:30:16.465Z,40.96
2018-07-07T14:32:44.239Z,40.59
2018-07-07T14:35:11.811Z,41.46
2018-07-07T14:37:39.528Z,40.88
2018-07-07T14:40:07.224Z,41.99
2018-07-07T14:42:49.437Z,42.58
2018-07-07T14:45:36.470Z,42.05
2018-07-07T14:48:04.691Z,42.03
2018-07-07T14:50:32.487Z,41.41
2018-07-07T14:53:00.087Z,41.74
2018-07-07T14:55:28.441Z,42.53
2018-07-07T14:57:56.318Z,42.66
2018-07-07T15:00:27.693Z,42.64
2018-07-07T15:02:56.369Z,42.81
2018-07-07T15:05:24.076Z,42.24
2018-07-07T15:07:51.771Z,41.53
2018-07-07T15:10:19.447Z,41.62
2018-07-07T15:12:47.706Z,41.90
2018-07-07T15:15:15.674Z,40.97
2018-07-07T15:17:44.171Z,41.61
2018-07-07T15:20:11.896Z,42.60
2018-07-07T15:22:39.661Z,42.68
2018-07-07T15:25:07.769Z,42.26
2018-07-07T15:27:35.674Z,42.28
2018-07-07T15:30:03.482Z,43.32
2018-07-07T15:32:31.165Z,42.75
2018-07-07T15:34:58.794Z,43.13
2018-07-07T15:37:26.379Z,43.67
2018-07-07T15:39:53.927Z,43.63
2018-07-07T15:42:21.561Z,43.65
2018-07-07T15:44:49.176Z,43.68
2018-07-07T15:47:16.791Z,42.77
2018-07-07T15:49:44.612Z,43.71
2018-07-07T15:52:12.232Z,43.91
2018-07-07T15:54:39.807Z,44.99
2018-07-07T15:57:07.578Z,43.96
2018-07-07T15:59:35.283Z,44.22
2018-07-07T16:02:02.908Z,44.87
2018-07-07T16:04:30.524Z,45.80
2018-07-07T16:06:58.187Z,45.24
2018-07-07T16:09:25.815Z,45.45
2018-07-07T16:11:53.470Z,45.67
2018-07-07T16:14:21.788Z,45.53
2018-07-07T16:16:49.422Z,45.11
2018-07-07T16:19:17.196Z,45.29
2018-07-07T16:21:44.794Z,45.28
2018-07-07T16:24:12.399Z,45.62
2018-07-07T16:26:40.044Z,46.38
2018-07-07T16:29:07.640Z,46.58
2018-07-07T16:31:35.242Z,45.71
2018-07-07T16:34:02.891Z,47.04
2018-07-07T16:36:30.508Z,46.93
2018-07-07T16:38:58.164Z,46.50
2018-07-07T16:41:26.025Z,46.95
2018-07-07T16:43:53.759Z,46.57
2018-07-07T16:46:21.576Z,47.39
2018-07-07T16:48:49.317Z,47.07
2018-07-07T16:51:17.023Z,47.53
2018-07-07T16:53:45.636Z,47.92
2018-07-07T16:56:13.430Z,48.61
2018-07-07T16:58:41.170Z,47.49
2018-07-07T17:01:08.887Z,47.35
2018-07-07T17:03:37.224Z,47.45
2018-07-07T17:06:04.987Z,47.63
2018-07-07T17:08:32.651Z,47.80
2018-07-07T17:11:00.577Z,48.08
2018-07-07T17:13:28.307Z,48.63
2018-07-07T17:15:55.974Z,47.94
2018-07-07T17:18:24.664Z,48.98
2018-07-07T17:20:52.367Z,48.69
2018-07-07T17:23:20.093Z,48.59
2018-07-07T17:25:48.156Z,47.39
2018-07-07T17:28:15.828Z,47.38
2018-07-07T17:30:43.527Z,47.97
2018-07-07T17:33:11.272Z,47.89
2018-07-07T17:35:38.979Z,48.20
2018-07-07T17:38:06.749Z,48.17
2018-07-07T17:40:35.131Z,48.23
2018-07-07T17:43:02.871Z,48.19
2018-07-07T17:45:31.040Z,48.20
2018-07-07T17:47:59.258Z,48.26
2018-07-07T17:50:26.943Z,48.70
2018-07-07T17:52:54.668Z,48.98
2018-07-07T17:55:23.307Z,49.18
2018-07-07T17:57:51.023Z,49.06
2018-07-07T18:00:18.739Z,48.88
2018-07-07T18:02:46.450Z,49.36
2018-07-07T18:05:14.128Z,49.22
2018-07-07T18:07:41.783Z,49.45
2018-07-07T18:10:09.406Z,49.95
2018-07-07T18:12:37.034Z,49.33
2018-07-07T18:15:05.352Z,49.09
2018-07-07T18:17:32.930Z,49.24
2018-07-07T18:20:00.628Z,49.17
2018-07-07T18:22:28.351Z,49.31
2018-07-07T18:24:56.000Z,49.84
2018-07-07T18:27:23.636Z,49.16
2018-07-07T18:29:51.227Z,50.19
2018-07-07T18:32:18.815Z,49.97
2018-07-07T18:34:46.399Z,50.37
2018-07-07T18:37:13.991Z,50.31
2018-07-07T18:39:41.684Z,50.31
2018-07-07T18:42:09.287Z,50.47
2018-07-07T18:44:36.847Z,50.99
2018-07-07T18:47:04.606Z,51.55
2018-07-07T18:49:32.231Z,51.25
2018-07-07T18:51:59.995Z,51.27
2018-07-07T18:54:27.559Z,51.46
2018-07-07T18:56:55.212Z,51.80
2018-07-07T18:59:22.799Z,51.48
2018-07-07T19:01:50.507Z,52.15
2018-07-07T19:04:18.202Z,52.61
2018-07-07T19:06:45.784Z,52.63
2018-07-07T19:09:13.446Z,53.14
2018-07-07T19:11:41.071Z,53.08
2018-07-07T19:14:08.624Z,53.39
2018-07-07T19:16:36.203Z,53.78
2018-07-07T19:19:03.856Z,53.37
2018-07-07T19:21:37.014Z,53.02
2018-07-07T19:24:10.135Z,53.69
2018-07-07T19:26:43.379Z,53.21
2018-07-07T19:29:11.183Z,52.73
2018-07-07T19:31:44.493Z,53.39
2018-07-07T19:34:17.798Z,52.48
2018-07-07T19:36:50.851Z,53.00
2018-07-07T19:39:18.472Z,53.19
2018-07-07T19:41:46.105Z,53.27
2018-07-07T19:44:13.687Z,54.15
2018-07-07T19:46:41.355Z,53.06
2018-07-07T19:49:08.979Z,53.87
2018-07-07T19:51:36.619Z,54.51
2018-07-07T19:54:04.307Z,54.11
2018-07-07T19:56:31.955Z,54.17
2018-07-07T19:58:59.514Z,54.47
2018-07-07T20:01:27.168Z,55.04
2018-07-07T20:03:54.767Z,54.51
2018-07-07T20:06:22.391Z,54.73
2018-07-07T20:08:50.119Z,54.71
2018-07-07T20:11:17.862Z,54.92
2018-07-07T20:13:45.823Z,55.04
2018-07-07T20:16:20.394Z,55.07
2018-07-07T20:19:08.815Z,53.71
2018-07-07T20:21:48.343Z,53.77
2018-07-07T20:24:17.422Z,53.98
2018-07-07T20:26:50.802Z,53.13
2018-07-07T20:29:18.631Z,53.38
2018-07-07T20:31:49.420Z,53.73
2018-07-07T20:34:19.734Z,53.93
2018-07-07T20:36:47.441Z,53.89
2018-07-07T20:39:15.176Z,53.49
2018-07-07T20:41:42.886Z,54.83
2018-07-07T20:44:11.490Z,53.58
2018-07-07T20:46:39.259Z,54.18
2018-07-07T20:49:06.990Z,53.55
2018-07-07T20:51:35.759Z,53.96
2018-07-07T20:54:03.514Z,53.07
2018-07-07T20:56:31.201Z,53.68
2018-07-07T20:58:59.378Z,52.99
2018-07-07T21:01:27.160Z,53.18
2018-07-07T21:03:54.942Z,53.44
2018-07-07T21:06:22.611Z,52.95
2018-07-07T21:08:50.441Z,53.22
2018-07-07T21:11:18.162Z,53.09
2018-07-07T21:13:46.827Z,53.33
2018-07-07T21:16:14.496Z,53.25
2018-07-07T21:18:42.232Z,53.05
2018-07-07T21:21:10.027Z,53.13
2018-07-07T21:23:38.485Z,53.81
2018-07-07T21:26:06.213Z,52.84
2018-07-07T21:28:33.995Z,53.68
2018-07-07T21:31:01.803Z,52.72
2018-07-07T21:33:29.560Z,52.27
2018-07-07T21:35:57.745Z,52.26
2018-07-07T21:38:25.432Z,52.92
2018-07-07T21:40:53.163Z,53.16
2018-07-07T21:43:20.847Z,52.12
2018-07-07T21:45:49.563Z,52.00
2018-07-07T21:48:17.232Z,51.06
2018-07-07T21:50:44.948Z,52.30
2018-07-07T21:53:12.617Z,51.80
2018-07-07T21:55:40.309Z,52.14
2018-07-07T21:58:13.571Z,52.63
2018-07-07T22:00:58.329Z,52.34
2018-07-07T22:03:31.563Z,51.66
2018-07-07T22:06:04.950Z,51.09
2018-07-07T22:08:32.622Z,52.03
2018-07-07T22:11:00.367Z,51.63
2018-07-07T22:13:28.518Z,51.29
2018-07-07T22:15:56.235Z,51.20
2018-07-07T22:18:23.945Z,51.18
2018-07-07T22:21:03.493Z,51.29
2018-07-07T22:23:31.139Z,51.69
2018-07-07T22:25:59.100Z,51.29
2018-07-07T22:28:26.747Z,51.52
2018-07-07T22:30:54.495Z,51.40
2018-07-07T22:33:23.936Z,51.95
2018-07-07T22:35:57.074Z,52.46
2018-07-07T22:38:30.288Z,51.83
2018-07-07T22:40:58.471Z,52.95
2018-07-07T22:43:26.527Z,52.36
2018-07-07T22:45:54.291Z,52.21
2018-07-07T22:48:23.201Z,51.70
2018-07-07T22:50:50.927Z,51.84
2018-07-07T22:53:19.252Z,51.86
2018-07-07T22:55:46.992Z,51.77
2018-07-07T22:58:14.975Z,51.78
2018-07-07T23:00:42.775Z,51.11
2018-07-07T23:03:11.861Z,51.82
2018-07-07T23:05:39.875Z,52.45
2018-07-07T23:08:08.005Z,51.62
2018-07-07T23:10:36.342Z,52.14
2018-07-07T23:13:04.101Z,51.64
2018-07-07T23:15:31.775Z,52.13
2018-07-07T23:17:59.905Z,51.97
2018-07-07T23:20:27.607Z,51.48
2018-07-07T23:22:55.640Z,51.39
2018-07-07T23:25:23.408Z,51.08
2018-07-07T23:27:51.434Z,51.70
2018-07-07T23:30:19.801Z,51.55
2018-07-07T23:32:48.008Z,52.52
2018-07-07T23:35:16.105Z,51.81
2018-07-07T23:37:43.741Z,51.28
2018-07-07T23:40:11.877Z,51.97
2018-07-07T23:42:40.129Z,52.15
2018-07-07T23:45:08.957Z,51.70
2018-07-07T23:47:36.691Z,52.05
2018-07-07T23:50:05.798Z,51.73
2018-07-07T23:55:08.000Z,52.43
2018-07-07T23:57:36.189Z,52.62
